sensor_id;sensor_type;location;lat;lon;timestamp;P1;durP1;ratioP1;P2;durP2;ratioP2
3843;SDS011;1937;51.444;6.484;2023-04-01T00:00:21;4.50;;;1.87;;
3843;SDS011;1937;51.444;6.484;2023-04-01T00:02:48;5.73;;;2.60;;
3843;SDS011;1937;51.444;6.484;2023-04-01T00:05:15;4.93;;;2.60;;
3843;SDS011;1937;51.444;6.484;2023-04-01T00:07:41;2.47;;;1.87;;
3843;SDS011;1937;51.444;6.484;2023-04-01T00:10:11;6.93;;;2.13;;
3843;SDS011;1937;51.444;6.484;2023-04-01T00:12:39;4.20;;;2.20;;
3843;SDS011;1937;51.444;6.484;2023-04-01T00:15:06;4.27;;;2.23;;
3843;SDS011;1937;51.444;6.484;2023-04-01T00:17:35;4.60;;;2.10;;
3843;SDS011;1937;51.444;6.484;2023-04-01T00:20:01;3.33;;;2.10;;
3843;SDS011;1937;51.444;6.484;2023-04-01T00:22:29;3.70;;;2.00;;
3843;SDS011;1937;51.444;6.484;2023-04-01T00:24:55;4.57;;;2.30;;
3843;SDS011;1937;51.444;6.484;2023-04-01T00:27:23;6.57;;;2.57;;
3843;SDS011;1937;51.444;6.484;2023-04-01T00:29:51;9.40;;;1.90;;
3843;SDS011;1937;51.444;6.484;2023-04-01T00:32:17;3.83;;;2.27;;
3843;SDS011;1937;51.444;6.484;2023-04-01T00:34:44;2.50;;;1.60;;
3843;SDS011;1937;51.444;6.484;2023-04-01T00:37:11;4.43;;;2.33;;
3843;SDS011;1937;51.444;6.484;2023-04-01T00:39:37;7.83;;;2.37;;
3843;SDS011;1937;51.444;6.484;2023-04-01T00:42:05;2.50;;;1.90;;
3843;SDS011;1937;51.444;6.484;2023-04-01T00:44:33;6.93;;;1.93;;
3843;SDS011;1937;51.444;6.484;2023-04-01T00:47:00;5.43;;;1.87;;
3843;SDS011;1937;51.444;6.484;2023-04-01T00:49:28;4.87;;;2.40;;
3843;SDS011;1937;51.444;6.484;2023-04-01T00:51:57;6.63;;;1.70;;
3843;SDS011;1937;51.444;6.484;2023-04-01T00:54:26;3.03;;;2.07;;
3843;SDS011;1937;51.444;6.484;2023-04-01T00:56:55;5.40;;;2.40;;
3843;SDS011;1937;51.444;6.484;2023-04-01T00:59:26;5.17;;;2.47;;
3843;SDS011;1937;51.444;6.484;2023-04-01T01:01:56;4.33;;;2.40;;
3843;SDS011;1937;51.444;6.484;2023-04-01T01:04:24;3.20;;;1.93;;
3843;SDS011;1937;51.444;6.484;2023-04-01T01:06:55;3.10;;;2.17;;
3843;SDS011;1937;51.444;6.484;2023-04-01T01:09:31;2.63;;;1.77;;
3843;SDS011;1937;51.444;6.484;2023-04-01T01:12:07;4.30;;;1.87;;
3843;SDS011;1937;51.444;6.484;2023-04-01T01:14:40;7.57;;;1.80;;
3843;SDS011;1937;51.444;6.484;2023-04-01T01:17:19;2.13;;;1.63;;
3843;SDS011;1937;51.444;6.484;2023-04-01T01:19:57;4.23;;;1.80;;
3843;SDS011;1937;51.444;6.484;2023-04-01T01:22:49;1.50;;;1.40;;
3843;SDS011;1937;51.444;6.484;2023-04-01T01:25:26;6.67;;;1.70;;
3843;SDS011;1937;51.444;6.484;2023-04-01T01:27:58;1.97;;;1.70;;
3843;SDS011;1937;51.444;6.484;2023-04-01T01:30:43;1.90;;;1.80;;
3843;SDS011;1937;51.444;6.484;2023-04-01T01:33:18;2.53;;;1.77;;
3843;SDS011;1937;51.444;6.484;2023-04-01T01:35:56;3.20;;;2.40;;
3843;SDS011;1937;51.444;6.484;2023-04-01T01:38:26;2.23;;;1.93;;
3843;SDS011;1937;51.444;6.484;2023-04-01T01:40:55;2.57;;;1.80;;
3843;SDS011;1937;51.444;6.484;2023-04-01T01:43:24;3.53;;;2.40;;
3843;SDS011;1937;51.444;6.484;2023-04-01T01:45:53;2.60;;;2.17;;
3843;SDS011;1937;51.444;6.484;2023-04-01T01:48:23;2.70;;;1.53;;
3843;SDS011;1937;51.444;6.484;2023-04-01T01:50:52;1.87;;;1.70;;
3843;SDS011;1937;51.444;6.484;2023-04-01T01:53:21;3.47;;;2.43;;
3843;SDS011;1937;51.444;6.484;2023-04-01T01:55:47;2.50;;;1.77;;
3843;SDS011;1937;51.444;6.484;2023-04-01T01:58:16;2.27;;;2.10;;
3843;SDS011;1937;51.444;6.484;2023-04-01T02:00:47;5.03;;;2.40;;
3843;SDS011;1937;51.444;6.484;2023-04-01T02:03:17;3.20;;;2.07;;
3843;SDS011;1937;51.444;6.484;2023-04-01T02:05:46;4.37;;;2.03;;
3843;SDS011;1937;51.444;6.484;2023-04-01T02:08:16;1.57;;;1.47;;
3843;SDS011;1937;51.444;6.484;2023-04-01T02:10:49;2.90;;;1.70;;
3843;SDS011;1937;51.444;6.484;2023-04-01T02:13:24;2.03;;;1.80;;
3843;SDS011;1937;51.444;6.484;2023-04-01T02:15:56;3.60;;;1.90;;
3843;SDS011;1937;51.444;6.484;2023-04-01T02:18:26;5.20;;;1.80;;
3843;SDS011;1937;51.444;6.484;2023-04-01T02:20:56;2.20;;;1.90;;
3843;SDS011;1937;51.444;6.484;2023-04-01T02:23:25;1.83;;;1.30;;
3843;SDS011;1937;51.444;6.484;2023-04-01T02:25:55;1.60;;;1.50;;
3843;SDS011;1937;51.444;6.484;2023-04-01T02:28:22;2.60;;;1.43;;
3843;SDS011;1937;51.444;6.484;2023-04-01T02:30:50;1.93;;;1.50;;
3843;SDS011;1937;51.444;6.484;2023-04-01T02:33:18;1.93;;;1.30;;
3843;SDS011;1937;51.444;6.484;2023-04-01T02:35:46;1.20;;;1.10;;
3843;SDS011;1937;51.444;6.484;2023-04-01T02:38:13;1.37;;;1.23;;
3843;SDS011;1937;51.444;6.484;2023-04-01T02:40:45;3.20;;;1.40;;
3843;SDS011;1937;51.444;6.484;2023-04-01T02:43:14;1.30;;;1.20;;
3843;SDS011;1937;51.444;6.484;2023-04-01T02:45:42;1.10;;;1.10;;
3843;SDS011;1937;51.444;6.484;2023-04-01T02:48:09;3.13;;;1.13;;
3843;SDS011;1937;51.444;6.484;2023-04-01T02:50:35;1.43;;;1.33;;
3843;SDS011;1937;51.444;6.484;2023-04-01T02:53:02;1.33;;;1.23;;
3843;SDS011;1937;51.444;6.484;2023-04-01T02:55:31;3.57;;;1.23;;
3843;SDS011;1937;51.444;6.484;2023-04-01T02:57:57;6.80;;;1.23;;
3843;SDS011;1937;51.444;6.484;2023-04-01T03:00:26;1.97;;;1.30;;
3843;SDS011;1937;51.444;6.484;2023-04-01T03:02:53;1.50;;;1.40;;
3843;SDS011;1937;51.444;6.484;2023-04-01T03:05:20;2.67;;;1.70;;
3843;SDS011;1937;51.444;6.484;2023-04-01T03:07:48;1.80;;;1.70;;
3843;SDS011;1937;51.444;6.484;2023-04-01T03:10:15;2.50;;;1.83;;
3843;SDS011;1937;51.444;6.484;2023-04-01T03:12:42;4.97;;;1.90;;
3843;SDS011;1937;51.444;6.484;2023-04-01T03:15:09;2.80;;;1.63;;
3843;SDS011;1937;51.444;6.484;2023-04-01T03:17:38;5.27;;;2.30;;
3843;SDS011;1937;51.444;6.484;2023-04-01T03:20:06;2.60;;;1.80;;
3843;SDS011;1937;51.444;6.484;2023-04-01T03:22:35;3.73;;;2.10;;
3843;SDS011;1937;51.444;6.484;2023-04-01T03:25:03;2.83;;;1.77;;
3843;SDS011;1937;51.444;6.484;2023-04-01T03:27:30;3.33;;;2.00;;
3843;SDS011;1937;51.444;6.484;2023-04-01T03:29:57;2.80;;;2.50;;
3843;SDS011;1937;51.444;6.484;2023-04-01T03:32:23;3.17;;;1.97;;
3843;SDS011;1937;51.444;6.484;2023-04-01T03:34:51;2.70;;;1.90;;
3843;SDS011;1937;51.444;6.484;2023-04-01T03:37:18;3.57;;;1.67;;
3843;SDS011;1937;51.444;6.484;2023-04-01T03:39:44;3.17;;;1.97;;
3843;SDS011;1937;51.444;6.484;2023-04-01T03:42:11;1.90;;;1.63;;
3843;SDS011;1937;51.444;6.484;2023-04-01T03:44:38;3.23;;;1.87;;
3843;SDS011;1937;51.444;6.484;2023-04-01T03:47:04;3.73;;;2.10;;
3843;SDS011;1937;51.444;6.484;2023-04-01T03:49:31;3.47;;;2.47;;
3843;SDS011;1937;51.444;6.484;2023-04-01T03:52:00;2.70;;;1.60;;
3843;SDS011;1937;51.444;6.484;2023-04-01T03:54:27;1.70;;;1.60;;
3843;SDS011;1937;51.444;6.484;2023-04-01T03:56:53;2.73;;;1.80;;
3843;SDS011;1937;51.444;6.484;2023-04-01T03:59:22;1.83;;;1.73;;
3843;SDS011;1937;51.444;6.484;2023-04-01T04:01:49;2.40;;;2.00;;
3843;SDS011;1937;51.444;6.484;2023-04-01T04:04:16;4.23;;;1.90;;
3843;SDS011;1937;51.444;6.484;2023-04-01T04:06:42;2.33;;;2.10;;
3843;SDS011;1937;51.444;6.484;2023-04-01T04:09:10;2.93;;;2.70;;
3843;SDS011;1937;51.444;6.484;2023-04-01T04:11:37;4.37;;;2.47;;
3843;SDS011;1937;51.444;6.484;2023-04-01T04:14:03;2.33;;;2.07;;
3843;SDS011;1937;51.444;6.484;2023-04-01T04:16:30;3.60;;;2.77;;
3843;SDS011;1937;51.444;6.484;2023-04-01T04:18:57;4.97;;;2.03;;
3843;SDS011;1937;51.444;6.484;2023-04-01T04:21:23;3.97;;;2.60;;
3843;SDS011;1937;51.444;6.484;2023-04-01T04:23:50;4.07;;;2.60;;
3843;SDS011;1937;51.444;6.484;2023-04-01T04:26:18;5.70;;;2.60;;
3843;SDS011;1937;51.444;6.484;2023-04-01T04:28:45;3.93;;;2.63;;
3843;SDS011;1937;51.444;6.484;2023-04-01T04:31:11;6.20;;;2.70;;
3843;SDS011;1937;51.444;6.484;2023-04-01T04:33:43;5.60;;;2.97;;
3843;SDS011;1937;51.444;6.484;2023-04-01T04:36:10;2.40;;;1.93;;
3843;SDS011;1937;51.444;6.484;2023-04-01T04:38:37;3.73;;;2.67;;
3843;SDS011;1937;51.444;6.484;2023-04-01T04:41:07;4.73;;;2.73;;
3843;SDS011;1937;51.444;6.484;2023-04-01T04:43:36;3.50;;;2.60;;
3843;SDS011;1937;51.444;6.484;2023-04-01T04:46:04;7.00;;;2.50;;
3843;SDS011;1937;51.444;6.484;2023-04-01T04:48:31;4.80;;;2.67;;
3843;SDS011;1937;51.444;6.484;2023-04-01T04:50:57;5.57;;;3.37;;
3843;SDS011;1937;51.444;6.484;2023-04-01T04:53:24;4.77;;;2.80;;
3843;SDS011;1937;51.444;6.484;2023-04-01T04:55:51;4.17;;;3.07;;
3843;SDS011;1937;51.444;6.484;2023-04-01T04:58:18;4.00;;;2.80;;
3843;SDS011;1937;51.444;6.484;2023-04-01T05:00:46;3.10;;;2.67;;
3843;SDS011;1937;51.444;6.484;2023-04-01T05:03:13;4.30;;;2.97;;
3843;SDS011;1937;51.444;6.484;2023-04-01T05:05:47;5.20;;;3.57;;
3843;SDS011;1937;51.444;6.484;2023-04-01T05:08:15;5.40;;;3.03;;
3843;SDS011;1937;51.444;6.484;2023-04-01T05:10:41;4.50;;;3.80;;
3843;SDS011;1937;51.444;6.484;2023-04-01T05:13:08;6.17;;;3.67;;
3843;SDS011;1937;51.444;6.484;2023-04-01T05:15:36;4.07;;;3.33;;
3843;SDS011;1937;51.444;6.484;2023-04-01T05:18:04;4.63;;;3.17;;
3843;SDS011;1937;51.444;6.484;2023-04-01T05:20:31;4.03;;;3.23;;
3843;SDS011;1937;51.444;6.484;2023-04-01T05:22:58;4.20;;;3.80;;
3843;SDS011;1937;51.444;6.484;2023-04-01T05:25:25;6.43;;;4.27;;
3843;SDS011;1937;51.444;6.484;2023-04-01T05:27:52;5.13;;;3.77;;
3843;SDS011;1937;51.444;6.484;2023-04-01T05:30:19;5.40;;;3.93;;
3843;SDS011;1937;51.444;6.484;2023-04-01T05:32:46;7.87;;;4.87;;
3843;SDS011;1937;51.444;6.484;2023-04-01T05:35:14;6.93;;;4.77;;
3843;SDS011;1937;51.444;6.484;2023-04-01T05:37:40;7.40;;;4.80;;
3843;SDS011;1937;51.444;6.484;2023-04-01T05:40:08;7.27;;;4.63;;
3843;SDS011;1937;51.444;6.484;2023-04-01T05:42:35;8.20;;;4.47;;
3843;SDS011;1937;51.444;6.484;2023-04-01T05:45:01;6.50;;;4.70;;
3843;SDS011;1937;51.444;6.484;2023-04-01T05:47:28;6.20;;;4.73;;
3843;SDS011;1937;51.444;6.484;2023-04-01T05:49:55;7.17;;;4.93;;
3843;SDS011;1937;51.444;6.484;2023-04-01T05:52:23;6.80;;;5.57;;
3843;SDS011;1937;51.444;6.484;2023-04-01T05:54:50;6.97;;;4.83;;
3843;SDS011;1937;51.444;6.484;2023-04-01T05:57:17;8.47;;;5.77;;
3843;SDS011;1937;51.444;6.484;2023-04-01T05:59:44;9.10;;;5.70;;
3843;SDS011;1937;51.444;6.484;2023-04-01T06:02:11;8.83;;;5.00;;
3843;SDS011;1937;51.444;6.484;2023-04-01T06:04:42;9.03;;;5.83;;
3843;SDS011;1937;51.444;6.484;2023-04-01T06:07:12;8.10;;;5.57;;
3843;SDS011;1937;51.444;6.484;2023-04-01T06:09:41;9.20;;;5.40;;
3843;SDS011;1937;51.444;6.484;2023-04-01T06:12:16;9.80;;;5.20;;
3843;SDS011;1937;51.444;6.484;2023-04-01T06:14:53;12.00;;;6.40;;
3843;SDS011;1937;51.444;6.484;2023-04-01T06:17:38;8.57;;;5.80;;
3843;SDS011;1937;51.444;6.484;2023-04-01T06:20:16;8.50;;;5.63;;
3843;SDS011;1937;51.444;6.484;2023-04-01T06:22:56;9.60;;;5.97;;
3843;SDS011;1937;51.444;6.484;2023-04-01T06:25:39;6.33;;;4.40;;
3843;SDS011;1937;51.444;6.484;2023-04-01T06:31:33;7.17;;;5.13;;
3843;SDS011;1937;51.444;6.484;2023-04-01T06:34:20;9.80;;;6.20;;
3843;SDS011;1937;51.444;6.484;2023-04-01T06:37:40;8.13;;;5.40;;
3843;SDS011;1937;51.444;6.484;2023-04-01T06:40:36;6.93;;;5.20;;
3843;SDS011;1937;51.444;6.484;2023-04-01T06:43:19;8.80;;;5.70;;
3843;SDS011;1937;51.444;6.484;2023-04-01T06:45:52;6.57;;;4.80;;
3843;SDS011;1937;51.444;6.484;2023-04-01T06:48:33;8.53;;;5.53;;
3843;SDS011;1937;51.444;6.484;2023-04-01T06:51:15;8.23;;;5.33;;
3843;SDS011;1937;51.444;6.484;2023-04-01T06:53:54;8.10;;;5.90;;
3843;SDS011;1937;51.444;6.484;2023-04-01T06:56:29;8.20;;;6.13;;
3843;SDS011;1937;51.444;6.484;2023-04-01T06:58:59;7.67;;;5.57;;
3843;SDS011;1937;51.444;6.484;2023-04-01T07:01:33;7.93;;;6.13;;
3843;SDS011;1937;51.444;6.484;2023-04-01T07:04:05;8.80;;;6.67;;
3843;SDS011;1937;51.444;6.484;2023-04-01T07:06:36;7.70;;;6.40;;
3843;SDS011;1937;51.444;6.484;2023-04-01T07:09:09;7.83;;;5.40;;
3843;SDS011;1937;51.444;6.484;2023-04-01T07:11:41;8.90;;;5.63;;
3843;SDS011;1937;51.444;6.484;2023-04-01T07:14:12;8.73;;;6.37;;
3843;SDS011;1937;51.444;6.484;2023-04-01T07:16:46;9.93;;;5.60;;
3843;SDS011;1937;51.444;6.484;2023-04-01T07:19:16;6.83;;;5.20;;
3843;SDS011;1937;51.444;6.484;2023-04-01T07:21:48;9.20;;;5.33;;
3843;SDS011;1937;51.444;6.484;2023-04-01T07:24:21;6.37;;;5.00;;
3843;SDS011;1937;51.444;6.484;2023-04-01T07:26:54;7.80;;;5.47;;
3843;SDS011;1937;51.444;6.484;2023-04-01T07:29:22;8.43;;;5.07;;
3843;SDS011;1937;51.444;6.484;2023-04-01T07:32:06;6.10;;;5.37;;
3843;SDS011;1937;51.444;6.484;2023-04-01T07:34:40;8.90;;;6.07;;
3843;SDS011;1937;51.444;6.484;2023-04-01T07:37:17;9.90;;;5.60;;
3843;SDS011;1937;51.444;6.484;2023-04-01T07:39:53;8.40;;;5.33;;
3843;SDS011;1937;51.444;6.484;2023-04-01T07:42:30;10.87;;;6.53;;
3843;SDS011;1937;51.444;6.484;2023-04-01T07:45:08;8.07;;;5.90;;
3843;SDS011;1937;51.444;6.484;2023-04-01T07:47:50;8.53;;;5.30;;
3843;SDS011;1937;51.444;6.484;2023-04-01T07:50:27;8.57;;;5.97;;
3843;SDS011;1937;51.444;6.484;2023-04-01T07:52:58;7.67;;;5.20;;
3843;SDS011;1937;51.444;6.484;2023-04-01T07:55:33;8.40;;;5.30;;
3843;SDS011;1937;51.444;6.484;2023-04-01T07:58:09;6.17;;;4.07;;
3843;SDS011;1937;51.444;6.484;2023-04-01T08:00:42;7.70;;;5.17;;
3843;SDS011;1937;51.444;6.484;2023-04-01T08:03:35;7.13;;;4.27;;
3843;SDS011;1937;51.444;6.484;2023-04-01T08:06:16;7.83;;;4.70;;
3843;SDS011;1937;51.444;6.484;2023-04-01T08:08:54;9.10;;;4.50;;
3843;SDS011;1937;51.444;6.484;2023-04-01T08:12:59;9.10;;;4.30;;
3843;SDS011;1937;51.444;6.484;2023-04-01T08:28:44;7.40;;;5.10;;
3843;SDS011;1937;51.444;6.484;2023-04-01T08:31:17;10.77;;;5.43;;
3843;SDS011;1937;51.444;6.484;2023-04-01T08:33:49;7.17;;;4.77;;
3843;SDS011;1937;51.444;6.484;2023-04-01T08:36:20;9.17;;;5.00;;
3843;SDS011;1937;51.444;6.484;2023-04-01T08:38:51;9.70;;;5.67;;
3843;SDS011;1937;51.444;6.484;2023-04-01T08:44:22;15.50;;;6.57;;
3843;SDS011;1937;51.444;6.484;2023-04-01T08:52:50;12.87;;;6.27;;
3843;SDS011;1937;51.444;6.484;2023-04-01T08:55:36;13.07;;;6.80;;
3843;SDS011;1937;51.444;6.484;2023-04-01T08:58:22;14.90;;;8.13;;
3843;SDS011;1937;51.444;6.484;2023-04-01T09:01:10;17.63;;;8.03;;
3843;SDS011;1937;51.444;6.484;2023-04-01T09:03:52;15.03;;;7.70;;
3843;SDS011;1937;51.444;6.484;2023-04-01T09:06:44;14.27;;;7.03;;
3843;SDS011;1937;51.444;6.484;2023-04-01T09:09:45;12.70;;;7.73;;
3843;SDS011;1937;51.444;6.484;2023-04-01T09:12:48;17.53;;;9.20;;
3843;SDS011;1937;51.444;6.484;2023-04-01T09:15:28;13.23;;;7.10;;
3843;SDS011;1937;51.444;6.484;2023-04-01T09:21:31;14.27;;;8.80;;
3843;SDS011;1937;51.444;6.484;2023-04-01T09:24:26;15.30;;;8.87;;
3843;SDS011;1937;51.444;6.484;2023-04-01T09:27:16;16.17;;;9.10;;
3843;SDS011;1937;51.444;6.484;2023-04-01T09:33:04;15.83;;;8.57;;
3843;SDS011;1937;51.444;6.484;2023-04-01T09:36:02;15.83;;;9.43;;
3843;SDS011;1937;51.444;6.484;2023-04-01T09:38:38;15.47;;;9.37;;
3843;SDS011;1937;51.444;6.484;2023-04-01T09:41:17;16.40;;;8.97;;
3843;SDS011;1937;51.444;6.484;2023-04-01T09:44:03;18.73;;;10.90;;
3843;SDS011;1937;51.444;6.484;2023-04-01T09:52:22;18.27;;;9.90;;
3843;SDS011;1937;51.444;6.484;2023-04-01T09:55:02;19.43;;;10.03;;
3843;SDS011;1937;51.444;6.484;2023-04-01T10:00:55;16.97;;;10.23;;
3843;SDS011;1937;51.444;6.484;2023-04-01T10:25:15;23.90;;;11.63;;
3843;SDS011;1937;51.444;6.484;2023-04-01T10:31:08;26.03;;;11.40;;
3843;SDS011;1937;51.444;6.484;2023-04-01T10:34:13;19.50;;;11.80;;
3843;SDS011;1937;51.444;6.484;2023-04-01T10:37:07;24.27;;;11.60;;
3843;SDS011;1937;51.444;6.484;2023-04-01T10:40:03;23.77;;;11.10;;
3843;SDS011;1937;51.444;6.484;2023-04-01T10:43:02;19.53;;;10.90;;
3843;SDS011;1937;51.444;6.484;2023-04-01T10:49:21;24.50;;;12.03;;
3843;SDS011;1937;51.444;6.484;2023-04-01T10:55:12;19.80;;;11.20;;
3843;SDS011;1937;51.444;6.484;2023-04-01T10:58:10;23.13;;;11.63;;
3843;SDS011;1937;51.444;6.484;2023-04-01T11:07:35;24.53;;;12.50;;
3843;SDS011;1937;51.444;6.484;2023-04-01T11:10:25;20.90;;;14.20;;
3843;SDS011;1937;51.444;6.484;2023-04-01T11:13:29;18.90;;;11.50;;
3843;SDS011;1937;51.444;6.484;2023-04-01T11:22:53;17.90;;;11.67;;
3843;SDS011;1937;51.444;6.484;2023-04-01T11:25:41;22.77;;;11.10;;
3843;SDS011;1937;51.444;6.484;2023-04-01T11:28:34;15.03;;;9.80;;
3843;SDS011;1937;51.444;6.484;2023-04-01T11:31:25;17.17;;;9.27;;
3843;SDS011;1937;51.444;6.484;2023-04-01T11:34:02;18.90;;;10.23;;
3843;SDS011;1937;51.444;6.484;2023-04-01T11:36:43;14.60;;;9.40;;
3843;SDS011;1937;51.444;6.484;2023-04-01T11:39:27;15.57;;;8.80;;
3843;SDS011;1937;51.444;6.484;2023-04-01T11:42:01;13.80;;;9.80;;
3843;SDS011;1937;51.444;6.484;2023-04-01T11:44:39;12.70;;;9.27;;
3843;SDS011;1937;51.444;6.484;2023-04-01T11:47:15;15.90;;;9.70;;
3843;SDS011;1937;51.444;6.484;2023-04-01T11:49:59;13.30;;;8.80;;
3843;SDS011;1937;51.444;6.484;2023-04-01T11:52:46;14.80;;;9.10;;
3843;SDS011;1937;51.444;6.484;2023-04-01T11:55:37;13.00;;;9.17;;
3843;SDS011;1937;51.444;6.484;2023-04-01T11:58:17;11.83;;;8.17;;
3843;SDS011;1937;51.444;6.484;2023-04-01T12:01:08;11.07;;;8.13;;
3843;SDS011;1937;51.444;6.484;2023-04-01T12:04:19;15.03;;;8.10;;
3843;SDS011;1937;51.444;6.484;2023-04-01T12:07:08;13.93;;;9.20;;
3843;SDS011;1937;51.444;6.484;2023-04-01T12:09:46;11.90;;;8.13;;
3843;SDS011;1937;51.444;6.484;2023-04-01T12:12:23;11.20;;;8.13;;
3843;SDS011;1937;51.444;6.484;2023-04-01T12:14:56;12.93;;;7.87;;
3843;SDS011;1937;51.444;6.484;2023-04-01T12:17:32;13.57;;;7.90;;
3843;SDS011;1937;51.444;6.484;2023-04-01T12:20:13;18.60;;;9.43;;
3843;SDS011;1937;51.444;6.484;2023-04-01T12:23:08;13.97;;;8.37;;
3843;SDS011;1937;51.444;6.484;2023-04-01T12:26:00;16.60;;;9.37;;
3843;SDS011;1937;51.444;6.484;2023-04-01T12:28:51;12.30;;;7.47;;
3843;SDS011;1937;51.444;6.484;2023-04-01T12:31:33;18.47;;;9.50;;
3843;SDS011;1937;51.444;6.484;2023-04-01T12:37:06;13.93;;;9.03;;
3843;SDS011;1937;51.444;6.484;2023-04-01T12:39:47;12.80;;;8.93;;
3843;SDS011;1937;51.444;6.484;2023-04-01T12:42:28;16.73;;;8.73;;
3843;SDS011;1937;51.444;6.484;2023-04-01T12:45:11;13.57;;;8.10;;
3843;SDS011;1937;51.444;6.484;2023-04-01T12:53:50;14.17;;;7.80;;
3843;SDS011;1937;51.444;6.484;2023-04-01T12:56:42;11.60;;;7.70;;
3843;SDS011;1937;51.444;6.484;2023-04-01T12:59:23;11.70;;;7.43;;
3843;SDS011;1937;51.444;6.484;2023-04-01T13:02:12;17.77;;;10.37;;
3843;SDS011;1937;51.444;6.484;2023-04-01T13:04:51;16.33;;;8.43;;
3843;SDS011;1937;51.444;6.484;2023-04-01T13:07:40;18.90;;;9.30;;
3843;SDS011;1937;51.444;6.484;2023-04-01T13:10:29;13.47;;;8.70;;
3843;SDS011;1937;51.444;6.484;2023-04-01T13:13:16;13.83;;;8.37;;
3843;SDS011;1937;51.444;6.484;2023-04-01T13:15:54;17.97;;;9.87;;
3843;SDS011;1937;51.444;6.484;2023-04-01T13:18:31;16.60;;;10.03;;
3843;SDS011;1937;51.444;6.484;2023-04-01T13:21:08;14.77;;;8.73;;
3843;SDS011;1937;51.444;6.484;2023-04-01T13:23:46;15.60;;;10.10;;
3843;SDS011;1937;51.444;6.484;2023-04-01T13:26:22;12.87;;;8.40;;
3843;SDS011;1937;51.444;6.484;2023-04-01T13:28:56;16.53;;;9.60;;
3843;SDS011;1937;51.444;6.484;2023-04-01T13:31:34;12.10;;;8.20;;
3843;SDS011;1937;51.444;6.484;2023-04-01T13:34:19;12.13;;;8.00;;
3843;SDS011;1937;51.444;6.484;2023-04-01T13:37:09;13.07;;;7.77;;
3843;SDS011;1937;51.444;6.484;2023-04-01T13:39:49;13.03;;;7.63;;
3843;SDS011;1937;51.444;6.484;2023-04-01T13:42:28;11.83;;;7.27;;
3843;SDS011;1937;51.444;6.484;2023-04-01T13:44:59;13.77;;;8.30;;
3843;SDS011;1937;51.444;6.484;2023-04-01T13:47:32;15.90;;;8.73;;
3843;SDS011;1937;51.444;6.484;2023-04-01T13:50:23;13.03;;;8.03;;
3843;SDS011;1937;51.444;6.484;2023-04-01T13:56:15;11.20;;;6.80;;
3843;SDS011;1937;51.444;6.484;2023-04-01T13:58:53;14.63;;;6.70;;
3843;SDS011;1937;51.444;6.484;2023-04-01T14:01:32;9.83;;;7.20;;
3843;SDS011;1937;51.444;6.484;2023-04-01T14:07:00;11.43;;;6.67;;
3843;SDS011;1937;51.444;6.484;2023-04-01T14:09:45;9.50;;;6.60;;
3843;SDS011;1937;51.444;6.484;2023-04-01T14:12:27;10.43;;;6.53;;
3843;SDS011;1937;51.444;6.484;2023-04-01T14:15:04;9.67;;;6.40;;
3843;SDS011;1937;51.444;6.484;2023-04-01T14:17:49;8.53;;;6.60;;
3843;SDS011;1937;51.444;6.484;2023-04-01T14:20:27;11.57;;;6.93;;
3843;SDS011;1937;51.444;6.484;2023-04-01T14:29:00;12.53;;;7.03;;
3843;SDS011;1937;51.444;6.484;2023-04-01T14:31:42;10.73;;;7.43;;
3843;SDS011;1937;51.444;6.484;2023-04-01T14:34:20;10.27;;;7.63;;
3843;SDS011;1937;51.444;6.484;2023-04-01T14:36:58;9.33;;;6.67;;
3843;SDS011;1937;51.444;6.484;2023-04-01T14:39:49;12.90;;;6.97;;
3843;SDS011;1937;51.444;6.484;2023-04-01T14:42:36;8.73;;;6.37;;
3843;SDS011;1937;51.444;6.484;2023-04-01T14:45:26;10.07;;;6.60;;
3843;SDS011;1937;51.444;6.484;2023-04-01T14:48:16;8.90;;;6.50;;
3843;SDS011;1937;51.444;6.484;2023-04-01T14:50:50;9.83;;;6.60;;
3843;SDS011;1937;51.444;6.484;2023-04-01T14:53:24;8.53;;;5.33;;
3843;SDS011;1937;51.444;6.484;2023-04-01T14:55:55;9.50;;;5.70;;
3843;SDS011;1937;51.444;6.484;2023-04-01T14:58:23;8.97;;;7.07;;
3843;SDS011;1937;51.444;6.484;2023-04-01T15:00:57;9.83;;;6.53;;
3843;SDS011;1937;51.444;6.484;2023-04-01T15:03:33;12.43;;;6.17;;
3843;SDS011;1937;51.444;6.484;2023-04-01T15:06:13;9.13;;;5.77;;
3843;SDS011;1937;51.444;6.484;2023-04-01T15:08:59;9.50;;;6.30;;
3843;SDS011;1937;51.444;6.484;2023-04-01T15:11:35;10.00;;;6.50;;
3843;SDS011;1937;51.444;6.484;2023-04-01T15:14:23;8.47;;;6.30;;
3843;SDS011;1937;51.444;6.484;2023-04-01T15:17:05;8.30;;;4.80;;
3843;SDS011;1937;51.444;6.484;2023-04-01T15:19:51;8.87;;;5.60;;
3843;SDS011;1937;51.444;6.484;2023-04-01T15:22:43;13.40;;;7.57;;
3843;SDS011;1937;51.444;6.484;2023-04-01T15:25:25;9.97;;;6.70;;
3843;SDS011;1937;51.444;6.484;2023-04-01T15:28:13;10.40;;;6.67;;
3843;SDS011;1937;51.444;6.484;2023-04-01T15:30:53;9.70;;;6.00;;
3843;SDS011;1937;51.444;6.484;2023-04-01T15:33:29;8.53;;;5.87;;
3843;SDS011;1937;51.444;6.484;2023-04-01T15:36:07;9.20;;;5.73;;
3843;SDS011;1937;51.444;6.484;2023-04-01T15:38:48;8.97;;;5.30;;
3843;SDS011;1937;51.444;6.484;2023-04-01T15:41:20;8.33;;;5.20;;
3843;SDS011;1937;51.444;6.484;2023-04-01T15:43:55;6.60;;;4.87;;
3843;SDS011;1937;51.444;6.484;2023-04-01T15:46:24;6.73;;;5.30;;
3843;SDS011;1937;51.444;6.484;2023-04-01T15:49:03;7.87;;;5.80;;
3843;SDS011;1937;51.444;6.484;2023-04-01T15:51:42;9.10;;;6.30;;
3843;SDS011;1937;51.444;6.484;2023-04-01T15:54:26;8.03;;;5.53;;
3843;SDS011;1937;51.444;6.484;2023-04-01T15:59:56;10.00;;;6.50;;
3843;SDS011;1937;51.444;6.484;2023-04-01T16:02:47;13.10;;;6.80;;
3843;SDS011;1937;51.444;6.484;2023-04-01T16:05:22;12.13;;;7.40;;
3843;SDS011;1937;51.444;6.484;2023-04-01T16:07:55;8.70;;;6.10;;
3843;SDS011;1937;51.444;6.484;2023-04-01T16:10:43;13.47;;;6.70;;
3843;SDS011;1937;51.444;6.484;2023-04-01T16:13:33;18.50;;;7.03;;
3843;SDS011;1937;51.444;6.484;2023-04-01T16:16:14;13.47;;;8.27;;
3843;SDS011;1937;51.444;6.484;2023-04-01T16:21:48;12.10;;;7.77;;
3843;SDS011;1937;51.444;6.484;2023-04-01T16:24:19;15.53;;;8.53;;
3843;SDS011;1937;51.444;6.484;2023-04-01T16:26:57;12.67;;;8.07;;
3843;SDS011;1937;51.444;6.484;2023-04-01T16:29:32;12.53;;;7.80;;
3843;SDS011;1937;51.444;6.484;2023-04-01T16:32:20;12.83;;;8.67;;
3843;SDS011;1937;51.444;6.484;2023-04-01T16:34:57;13.33;;;9.00;;
3843;SDS011;1937;51.444;6.484;2023-04-01T16:37:39;15.63;;;9.07;;
3843;SDS011;1937;51.444;6.484;2023-04-01T16:40:15;13.27;;;8.90;;
3843;SDS011;1937;51.444;6.484;2023-04-01T16:42:51;14.37;;;8.90;;
3843;SDS011;1937;51.444;6.484;2023-04-01T16:45:21;12.13;;;8.83;;
3843;SDS011;1937;51.444;6.484;2023-04-01T16:48:00;13.30;;;8.43;;
3843;SDS011;1937;51.444;6.484;2023-04-01T16:50:39;11.93;;;8.57;;
3843;SDS011;1937;51.444;6.484;2023-04-01T16:53:14;14.07;;;9.17;;
3843;SDS011;1937;51.444;6.484;2023-04-01T16:55:47;12.23;;;7.80;;
3843;SDS011;1937;51.444;6.484;2023-04-01T16:58:19;12.97;;;8.50;;
3843;SDS011;1937;51.444;6.484;2023-04-01T17:00:51;11.80;;;7.93;;
3843;SDS011;1937;51.444;6.484;2023-04-01T17:03:24;18.70;;;8.67;;
3843;SDS011;1937;51.444;6.484;2023-04-01T17:06:07;14.80;;;8.87;;
3843;SDS011;1937;51.444;6.484;2023-04-01T17:11:47;12.57;;;8.00;;
3843;SDS011;1937;51.444;6.484;2023-04-01T17:14:20;13.30;;;9.30;;
3843;SDS011;1937;51.444;6.484;2023-04-01T17:16:56;13.83;;;8.63;;
3843;SDS011;1937;51.444;6.484;2023-04-01T17:19:42;15.37;;;9.37;;
3843;SDS011;1937;51.444;6.484;2023-04-01T17:22:21;16.90;;;8.67;;
3843;SDS011;1937;51.444;6.484;2023-04-01T17:24:58;12.37;;;8.80;;
3843;SDS011;1937;51.444;6.484;2023-04-01T17:27:36;16.90;;;9.50;;
3843;SDS011;1937;51.444;6.484;2023-04-01T17:33:11;13.40;;;9.20;;
3843;SDS011;1937;51.444;6.484;2023-04-01T17:35:54;15.23;;;10.30;;
3843;SDS011;1937;51.444;6.484;2023-04-01T17:38:28;15.20;;;9.83;;
3843;SDS011;1937;51.444;6.484;2023-04-01T17:41:11;17.17;;;10.67;;
3843;SDS011;1937;51.444;6.484;2023-04-01T17:43:48;14.90;;;9.77;;
3843;SDS011;1937;51.444;6.484;2023-04-01T17:46:25;16.03;;;10.57;;
3843;SDS011;1937;51.444;6.484;2023-04-01T17:49:00;14.90;;;9.87;;
3843;SDS011;1937;51.444;6.484;2023-04-01T17:51:39;18.33;;;11.37;;
3843;SDS011;1937;51.444;6.484;2023-04-01T17:54:20;15.40;;;10.10;;
3843;SDS011;1937;51.444;6.484;2023-04-01T17:56:58;17.20;;;9.97;;
3843;SDS011;1937;51.444;6.484;2023-04-01T17:59:36;12.80;;;9.10;;
3843;SDS011;1937;51.444;6.484;2023-04-01T18:02:09;15.50;;;10.57;;